Time;durP1;ratioP1;P1;durP2;ratioP2;P2;SDS_P1;SDS_P2;PMS_P1;PMS_P2;Temp;Humidity;BMP_temperature;BMP_pressure;BME280_temperature;BME280_humidity;BME280_pressure;Samples;Min_cycle;Max_cycle;Signal;HPM_P1;HPM_P2
2024/02/24 00:01:46;;;;;;;;;;;11.10;99.90;;;;;;5010273;28;20384;-79
2024/02/24 00:04:12;;;;;;;;;;;11.00;99.90;;;;;;5012157;28;19913;-79
2024/02/24 00:06:37;;;;;;;;;;;10.90;99.90;;;;;;5015965;28;19909;-79
2024/02/24 00:09:03;;;;;;;;;;;10.90;99.90;;;;;;5029815;28;19926;-79
2024/02/24 00:11:28;;;;;;;;;;;10.90;99.90;;;;;;5010505;28;19913;-79
2024/02/24 00:13:54;;;;;;;;;;;10.90;99.90;;;;;;5010148;28;19909;-79
2024/02/24 00:16:20;;;;;;;;;;;10.80;99.90;;;;;;5010550;28;19912;-79
2024/02/24 00:18:45;;;;;;;;;;;10.70;99.90;;;;;;5011164;28;19906;-77
2024/02/24 00:21:12;;;;;;;;;;;10.80;99.90;;;;;;5027500;28;19913;-79
2024/02/24 00:23:38;;;;;;;;;;;10.70;99.90;;;;;;5011143;28;19912;-79
2024/02/24 00:26:03;;;;;;;;;;;10.60;99.90;;;;;;5012785;28;19909;-78
2024/02/24 00:28:29;;;;;;;;;;;10.70;99.90;;;;;;5020612;28;19889;-80
2024/02/24 00:30:55;;;;;;;;;;;10.70;99.90;;;;;;5033859;28;19913;-79
2024/02/24 00:33:21;;;;;;;;;;;10.90;99.90;;;;;;5009362;28;19905;-79
2024/02/24 00:35:46;;;;;;;;;;;10.90;99.90;;;;;;5027057;28;19905;-79
2024/02/24 00:38:12;;;;;;;;;;;10.80;99.90;;;;;;5027143;28;19909;-79
2024/02/24 00:40:38;;;;;;;;;;;10.90;99.90;;;;;;5009136;28;19917;-79
2024/02/24 00:43:03;;;;;;;;;;;10.90;99.90;;;;;;5009599;28;20255;-78
2024/02/24 00:45:29;;;;;;;;;;;10.90;99.90;;;;;;5008116;28;20012;-78
2024/02/24 00:47:55;;;;;;;;;;;10.80;99.90;;;;;;5007999;28;19920;-79
2024/02/24 00:50:23;;;;;;;;;;;11.00;99.90;;;;;;5025610;28;19905;-78
2024/02/24 00:52:58;;;;;;;;;;;10.60;99.90;;;;;;5007916;28;19905;-79
2024/02/24 00:55:24;;;;;;;;;;;10.70;99.90;;;;;;5027237;28;19906;-80
2024/02/24 00:57:50;;;;;;;;;;;10.80;99.90;;;;;;5020489;28;19916;-79
2024/02/24 01:00:17;;;;;;;;;;;10.90;99.90;;;;;;5037627;28;19905;-78
2024/02/24 01:02:43;;;;;;;;;;;10.80;99.90;;;;;;5009131;28;20348;-79
2024/02/24 01:05:08;;;;;;;;;;;10.70;99.90;;;;;;5036759;28;19889;-79
2024/02/24 01:07:36;;;;;;;;;;;10.60;99.90;;;;;;5019281;28;20032;-80
2024/02/24 01:10:02;;;;;;;;;;;10.70;99.90;;;;;;5024152;28;20383;-79
2024/02/24 01:12:28;;;;;;;;;;;10.70;99.90;;;;;;5024349;28;19906;-80
2024/02/24 01:14:54;;;;;;;;;;;10.70;99.90;;;;;;5007623;28;19928;-80
2024/02/24 01:17:20;;;;;;;;;;;10.60;99.90;;;;;;5031880;28;19917;-79
2024/02/24 01:19:46;;;;;;;;;;;10.80;99.90;;;;;;5015171;28;19897;-80
2024/02/24 01:22:15;;;;;;;;;;;10.90;99.90;;;;;;5019247;28;19928;-78
2024/02/24 01:24:42;;;;;;;;;;;11.00;99.90;;;;;;5020094;28;19890;-79
2024/02/24 01:27:08;;;;;;;;;;;11.20;99.90;;;;;;5019561;28;20378;-80
2024/02/24 01:29:33;;;;;;;;;;;11.20;99.90;;;;;;5248589;23;19933;-80
2024/02/24 01:32:01;;;;;;;;;;;11.00;99.90;;;;;;5036935;28;19932;-79
2024/02/24 01:34:27;;;;;;;;;;;10.90;99.90;;;;;;5016797;28;19897;-80
2024/02/24 01:36:53;;;;;;;;;;;11.00;99.90;;;;;;5014329;28;19905;-80
2024/02/24 01:39:19;;;;;;;;;;;11.00;99.90;;;;;;5032573;28;19916;-80
2024/02/24 01:41:45;;;;;;;;;;;11.00;99.90;;;;;;5015017;28;19909;-80
2024/02/24 01:44:10;;;;;;;;;;;11.00;99.90;;;;;;5030441;28;19906;-79
2024/02/24 01:46:36;;;;;;;;;;;10.90;99.90;;;;;;5013955;28;19985;-80
2024/02/24 01:49:02;;;;;;;;;;;11.00;99.30;;;;;;5016788;28;19902;-80
2024/02/24 01:51:27;;;;;;;;;;;11.00;99.20;;;;;;5018401;28;19913;-79
2024/02/24 01:53:53;;;;;;;;;;;11.10;98.90;;;;;;5017492;28;19936;-80
2024/02/24 01:56:19;;;;;;;;;;;11.10;99.30;;;;;;5034239;28;19980;-78
2024/02/24 01:58:46;;;;;;;;;;;11.00;98.90;;;;;;5019744;28;19901;-80
2024/02/24 02:01:11;;;;;;;;;;;11.10;99.30;;;;;;5037222;28;19900;-79
2024/02/24 02:03:37;;;;;;;;;;;11.00;99.80;;;;;;5020135;28;19897;-80
2024/02/24 02:08:38;;;;;;;;;;;11.00;99.60;;;;;;5629328;22;19970;-79
2024/02/24 02:11:04;;;;;;;;;;;11.00;99.80;;;;;;5057208;28;19909;-79
2024/02/24 02:13:29;;;;;;;;;;;11.00;99.50;;;;;;5078328;28;19905;-80
2024/02/24 02:15:56;;;;;;;;;;;11.00;99.60;;;;;;5079169;28;19889;-80
2024/02/24 02:18:22;;;;;;;;;;;11.10;99.10;;;;;;5062900;28;19940;-79
2024/02/24 02:20:49;;;;;;;;;;;11.10;99.10;;;;;;5061721;28;19913;-80
2024/02/24 02:23:15;;;;;;;;;;;11.10;99.10;;;;;;5059386;28;19940;-79
2024/02/24 02:25:41;;;;;;;;;;;11.00;99.20;;;;;;5060327;28;19912;-80
2024/02/24 02:28:06;;;;;;;;;;;11.10;98.70;;;;;;5060739;28;19888;-80
2024/02/24 02:30:32;;;;;;;;;;;11.10;98.70;;;;;;5058271;28;19920;-80
2024/02/24 02:32:58;;;;;;;;;;;11.10;98.80;;;;;;5058029;28;19909;-79
2024/02/24 02:35:23;;;;;;;;;;;11.10;99.10;;;;;;5075455;28;19905;-79
2024/02/24 02:37:49;;;;;;;;;;;11.10;99.20;;;;;;5059938;28;19905;-79
2024/02/24 02:40:15;;;;;;;;;;;11.00;99.40;;;;;;5059270;28;19923;-80
2024/02/24 02:42:40;;;;;;;;;;;11.00;98.90;;;;;;5076053;28;19905;-80
2024/02/24 02:45:06;;;;;;;;;;;11.00;99.40;;;;;;5056580;28;19904;-81
2024/02/24 02:47:32;;;;;;;;;;;10.90;99.60;;;;;;5075394;28;19904;-79
2024/02/24 02:49:57;;;;;;;;;;;11.00;99.50;;;;;;5055928;28;19909;-78
2024/02/24 02:52:23;;;;;;;;;;;11.00;99.30;;;;;;5059076;28;19964;-79
2024/02/24 02:54:49;;;;;;;;;;;11.30;99.60;;;;;;5059958;28;19905;-79
2024/02/24 02:57:15;;;;;;;;;;;10.90;99.90;;;;;;5077127;28;19980;-78
2024/02/24 02:59:41;;;;;;;;;;;10.90;99.90;;;;;;5073092;28;19917;-79
2024/02/24 03:02:06;;;;;;;;;;;10.90;99.60;;;;;;5065208;28;19912;-79
2024/02/24 03:04:32;;;;;;;;;;;11.00;99.30;;;;;;5051718;28;19909;-79
2024/02/24 03:06:57;;;;;;;;;;;10.90;99.60;;;;;;5072802;28;19968;-77
2024/02/24 03:09:23;;;;;;;;;;;10.90;99.30;;;;;;5062650;28;19952;-80
2024/02/24 03:11:49;;;;;;;;;;;11.00;99.20;;;;;;5062712;28;19900;-79
2024/02/24 03:14:14;;;;;;;;;;;11.00;99.10;;;;;;5054387;28;19909;-78
2024/02/24 03:16:40;;;;;;;;;;;11.00;99.20;;;;;;5050828;28;19930;-79
2024/02/24 03:19:07;;;;;;;;;;;11.00;99.10;;;;;;5053813;28;19904;-80
2024/02/24 03:21:33;;;;;;;;;;;11.10;99.00;;;;;;5053214;28;19978;-82
2024/02/24 03:23:59;;;;;;;;;;;11.30;98.90;;;;;;5053055;28;19909;-79
2024/02/24 03:26:24;;;;;;;;;;;11.20;99.00;;;;;;5054257;28;19910;-79
2024/02/24 03:28:50;;;;;;;;;;;11.00;99.40;;;;;;5054117;28;19912;-78
2024/02/24 03:31:16;;;;;;;;;;;10.90;99.40;;;;;;5054479;28;19928;-79
2024/02/24 03:33:42;;;;;;;;;;;10.90;99.90;;;;;;5071512;28;19909;-78
2024/02/24 03:36:11;;;;;;;;;;;10.80;99.90;;;;;;5053599;28;19928;-79
2024/02/24 03:38:37;;;;;;;;;;;10.80;99.90;;;;;;5053189;28;19912;-79
2024/02/24 03:41:02;;;;;;;;;;;10.70;99.90;;;;;;5053440;28;20297;-79
2024/02/24 03:43:28;;;;;;;;;;;10.60;99.90;;;;;;5052705;28;19927;-80
2024/02/24 03:45:53;;;;;;;;;;;10.60;99.90;;;;;;5070675;28;19950;-80
2024/02/24 03:48:19;;;;;;;;;;;10.60;99.90;;;;;;5051938;28;19915;-80
2024/02/24 03:50:45;;;;;;;;;;;10.60;99.90;;;;;;5052394;28;19904;-79
2024/02/24 03:53:10;;;;;;;;;;;10.60;99.90;;;;;;5053073;28;19905;-79
2024/02/24 03:55:36;;;;;;;;;;;10.50;99.90;;;;;;5058432;28;19896;-80
2024/02/24 03:58:01;;;;;;;;;;;10.40;99.90;;;;;;5075663;28;19932;-79
2024/02/24 04:00:34;;;;;;;;;;;10.40;99.90;;;;;;5075765;28;19904;-79
2024/02/24 04:03:03;;;;;;;;;;;10.40;99.90;;;;;;5075800;28;19936;-80
2024/02/24 04:05:30;;;;;;;;;;;10.40;99.90;;;;;;5073353;22;20011;-79
2024/02/24 04:07:56;;;;;;;;;;;10.40;99.90;;;;;;5034522;28;19920;-79
2024/02/24 04:10:21;;;;;;;;;;;10.40;99.90;;;;;;5034653;28;19913;-80
2024/02/24 04:12:47;;;;;;;;;;;10.30;99.90;;;;;;5033377;28;20362;-80
2024/02/24 04:15:19;;;;;;;;;;;10.30;99.90;;;;;;5032798;28;19893;-80
2024/02/24 04:17:45;;;;;;;;;;;10.30;99.90;;;;;;5036763;28;19913;-78
2024/02/24 04:20:10;;;;;;;;;;;10.30;99.90;;;;;;5028732;28;19909;-78
2024/02/24 04:22:36;;;;;;;;;;;10.20;99.90;;;;;;5028866;28;19917;-78
2024/02/24 04:25:02;;;;;;;;;;;10.20;99.90;;;;;;5031073;28;19894;-79
2024/02/24 04:27:27;;;;;;;;;;;10.20;99.90;;;;;;5031348;28;19981;-78
2024/02/24 04:29:52;;;;;;;;;;;10.20;99.90;;;;;;5033012;28;19905;-79
2024/02/24 04:32:18;;;;;;;;;;;10.10;99.90;;;;;;5035702;28;19977;-80
2024/02/24 04:34:44;;;;;;;;;;;10.10;99.90;;;;;;5034130;28;20352;-79
2024/02/24 04:37:09;;;;;;;;;;;10.10;99.90;;;;;;5034077;28;19968;-80
2024/02/24 04:39:35;;;;;;;;;;;10.10;99.90;;;;;;5031233;28;19913;-79
2024/02/24 04:42:01;;;;;;;;;;;10.10;99.90;;;;;;5032234;28;19932;-80
2024/02/24 04:44:26;;;;;;;;;;;10.50;99.90;;;;;;5031037;28;19988;-79
2024/02/24 04:46:52;;;;;;;;;;;9.90;99.90;;;;;;5032034;28;19996;-80
2024/02/24 04:49:17;;;;;;;;;;;10.10;99.90;;;;;;5031211;28;19909;-79
2024/02/24 04:51:43;;;;;;;;;;;10.00;99.90;;;;;;5031439;28;19905;-79
2024/02/24 04:54:09;;;;;;;;;;;9.80;99.90;;;;;;5030915;28;19928;-80
2024/02/24 04:56:34;;;;;;;;;;;9.90;99.90;;;;;;5031807;28;19915;-79
2024/02/24 04:59:00;;;;;;;;;;;9.80;99.90;;;;;;5031635;28;19905;-80
2024/02/24 05:01:25;;;;;;;;;;;9.70;99.90;;;;;;5031027;28;19909;-80
2024/02/24 05:03:51;;;;;;;;;;;9.70;99.90;;;;;;5031212;28;19909;-79
2024/02/24 05:06:17;;;;;;;;;;;9.70;99.90;;;;;;5026804;28;19996;-79
2024/02/24 05:08:44;;;;;;;;;;;9.70;99.90;;;;;;5029119;28;19910;-80
2024/02/24 05:11:09;;;;;;;;;;;10.20;99.90;;;;;;5032719;28;19912;-80
2024/02/24 05:13:35;;;;;;;;;;;9.60;99.90;;;;;;5029363;28;19913;-79
2024/02/24 05:16:04;;;;;;;;;;;9.30;99.90;;;;;;5028352;28;19912;-79
2024/02/24 05:18:30;;;;;;;;;;;9.50;99.90;;;;;;5022106;28;20004;-79
2024/02/24 05:20:55;;;;;;;;;;;9.50;99.90;;;;;;5021288;28;19964;-79
2024/02/24 05:23:21;;;;;;;;;;;9.50;99.90;;;;;;5021949;28;19909;-77
2024/02/24 05:25:46;;;;;;;;;;;9.70;99.90;;;;;;5021465;28;20055;-78
2024/02/24 05:28:12;;;;;;;;;;;9.50;99.90;;;;;;5022936;28;19911;-79
2024/02/24 05:30:37;;;;;;;;;;;9.50;99.90;;;;;;5025452;28;19909;-80
2024/02/24 05:33:04;;;;;;;;;;;9.40;99.90;;;;;;5025705;28;19949;-80
2024/02/24 05:35:30;;;;;;;;;;;9.50;99.90;;;;;;5025131;28;19905;-80
2024/02/24 05:37:56;;;;;;;;;;;9.40;99.90;;;;;;5027888;28;19905;-80
2024/02/24 05:40:22;;;;;;;;;;;9.40;99.90;;;;;;5026468;28;19913;-79
2024/02/24 05:42:47;;;;;;;;;;;9.90;99.90;;;;;;5024776;28;19906;-79
2024/02/24 05:45:13;;;;;;;;;;;9.30;99.90;;;;;;5025199;28;19909;-80
2024/02/24 05:47:38;;;;;;;;;;;9.30;99.90;;;;;;5032104;28;19917;-79
2024/02/24 05:50:05;;;;;;;;;;;9.30;99.90;;;;;;5036336;28;19945;-79
2024/02/24 05:52:31;;;;;;;;;;;9.40;99.90;;;;;;5038451;28;19913;-79
2024/02/24 05:54:56;;;;;;;;;;;9.40;99.90;;;;;;5034244;28;19906;-80
2024/02/24 05:57:22;;;;;;;;;;;9.30;99.90;;;;;;5028329;28;19937;-79
2024/02/24 05:59:47;;;;;;;;;;;9.30;99.90;;;;;;5028454;28;19984;-79
2024/02/24 06:02:13;;;;;;;;;;;9.20;99.90;;;;;;5029822;28;19928;-79
2024/02/24 06:04:38;;;;;;;;;;;9.20;99.90;;;;;;5028904;28;19920;-80
2024/02/24 06:07:04;;;;;;;;;;;9.20;99.90;;;;;;5027984;28;19925;-78
2024/02/24 06:09:30;;;;;;;;;;;9.10;99.90;;;;;;5026131;28;19913;-80
2024/02/24 06:11:55;;;;;;;;;;;9.10;99.90;;;;;;5027382;28;19960;-78
2024/02/24 06:14:21;;;;;;;;;;;9.10;99.90;;;;;;5026880;28;19909;-78
2024/02/24 06:16:46;;;;;;;;;;;9.20;99.90;;;;;;5026173;28;19935;-79
2024/02/24 06:19:12;;;;;;;;;;;9.20;99.90;;;;;;5027478;28;19905;-78
2024/02/24 06:21:37;;;;;;;;;;;9.20;99.90;;;;;;5024754;28;19936;-79
2024/02/24 06:24:03;;;;;;;;;;;9.30;99.90;;;;;;5027776;28;19906;-79
2024/02/24 06:26:28;;;;;;;;;;;9.30;99.90;;;;;;5026151;28;19905;-77
2024/02/24 06:28:55;;;;;;;;;;;9.20;99.90;;;;;;5027036;28;19916;-80
2024/02/24 06:31:20;;;;;;;;;;;9.30;99.90;;;;;;5026585;28;19927;-78
2024/02/24 06:33:46;;;;;;;;;;;9.30;99.90;;;;;;5027108;28;19940;-79
2024/02/24 06:36:11;;;;;;;;;;;9.30;99.90;;;;;;5029054;28;19906;-78
2024/02/24 06:38:37;;;;;;;;;;;9.30;99.90;;;;;;5025322;28;19905;-78
2024/02/24 06:41:03;;;;;;;;;;;9.30;99.90;;;;;;5032503;28;19924;-79
2024/02/24 06:43:28;;;;;;;;;;;9.40;99.90;;;;;;5025075;28;20382;-78
2024/02/24 06:45:54;;;;;;;;;;;9.50;99.90;;;;;;5026777;28;20382;-79
2024/02/24 06:48:20;;;;;;;;;;;9.50;99.90;;;;;;5028895;28;19913;-79
2024/02/24 06:50:45;;;;;;;;;;;9.60;99.90;;;;;;5029560;28;19906;-79
2024/02/24 06:53:12;;;;;;;;;;;9.80;99.90;;;;;;5029799;28;20008;-79
2024/02/24 06:55:38;;;;;;;;;;;9.90;99.90;;;;;;5031093;28;19944;-79
2024/02/24 06:58:03;;;;;;;;;;;10.10;99.90;;;;;;5029533;28;20512;-80
2024/02/24 07:00:29;;;;;;;;;;;10.20;99.90;;;;;;5025007;28;19918;-78
2024/02/24 07:02:54;;;;;;;;;;;10.40;99.90;;;;;;5024476;28;20385;-80
2024/02/24 07:05:20;;;;;;;;;;;10.60;99.90;;;;;;5028027;28;19929;-80
2024/02/24 07:07:45;;;;;;;;;;;10.60;99.90;;;;;;5026762;28;19917;-80
2024/02/24 07:10:11;;;;;;;;;;;10.80;99.90;;;;;;5028112;28;19916;-79
2024/02/24 07:12:36;;;;;;;;;;;10.90;99.90;;;;;;5024830;28;19910;-79
2024/02/24 07:15:02;;;;;;;;;;;10.90;99.90;;;;;;5024034;28;19906;-79
2024/02/24 07:17:28;;;;;;;;;;;11.00;99.90;;;;;;5026269;28;20008;-78
2024/02/24 07:19:54;;;;;;;;;;;11.10;99.90;;;;;;5027025;28;19913;-79
2024/02/24 07:22:19;;;;;;;;;;;11.10;99.90;;;;;;5026866;28;19905;-79
2024/02/24 07:24:45;;;;;;;;;;;11.20;99.90;;;;;;5026638;28;19931;-80
2024/02/24 07:27:10;;;;;;;;;;;11.20;99.90;;;;;;5029866;28;19905;-79
2024/02/24 07:29:36;;;;;;;;;;;11.30;99.90;;;;;;5030482;28;20413;-79
2024/02/24 07:32:02;;;;;;;;;;;11.40;99.90;;;;;;5030281;28;19906;-78
2024/02/24 07:34:27;;;;;;;;;;;11.40;99.90;;;;;;5031533;28;19908;-79
2024/02/24 07:36:53;;;;;;;;;;;11.00;99.90;;;;;;5031021;28;19905;-79
2024/02/24 07:39:18;;;;;;;;;;;11.60;99.90;;;;;;5029737;28;20000;-79
2024/02/24 07:41:45;;;;;;;;;;;11.70;99.90;;;;;;5034215;28;19917;-79
2024/02/24 07:44:11;;;;;;;;;;;11.90;99.90;;;;;;5030669;28;19917;-78
2024/02/24 07:46:36;;;;;;;;;;;12.10;99.90;;;;;;5031216;28;19905;-80
2024/02/24 07:49:02;;;;;;;;;;;11.80;99.90;;;;;;5027108;28;19913;-78
2024/02/24 07:51:28;;;;;;;;;;;12.30;99.90;;;;;;5029724;28;19905;-79
2024/02/24 07:53:54;;;;;;;;;;;12.70;99.90;;;;;;5028591;28;19905;-78
2024/02/24 07:56:20;;;;;;;;;;;12.60;99.90;;;;;;5027943;28;19905;-78
2024/02/24 07:58:45;;;;;;;;;;;12.90;99.90;;;;;;5028873;28;19906;-78
2024/02/24 08:01:11;;;;;;;;;;;13.00;99.90;;;;;;5031664;28;19913;-78
2024/02/24 08:03:36;;;;;;;;;;;13.10;99.90;;;;;;5026620;28;19912;-78
2024/02/24 08:06:02;;;;;;;;;;;13.10;99.90;;;;;;5028484;28;19980;-76
2024/02/24 08:08:28;;;;;;;;;;;13.20;99.90;;;;;;5028497;28;19928;-78
2024/02/24 08:10:53;;;;;;;;;;;13.20;99.90;;;;;;5030048;28;19906;-76
2024/02/24 08:13:19;;;;;;;;;;;13.20;99.90;;;;;;5031199;28;19905;-78
2024/02/24 08:15:45;;;;;;;;;;;13.20;99.90;;;;;;5029524;28;19905;-77
2024/02/24 08:18:11;;;;;;;;;;;13.70;99.90;;;;;;5028831;28;19913;-76
2024/02/24 08:20:36;;;;;;;;;;;13.30;99.90;;;;;;5031526;28;19980;-79
2024/02/24 08:23:02;;;;;;;;;;;13.20;99.90;;;;;;5030982;28;19909;-78
2024/02/24 08:25:28;;;;;;;;;;;13.20;99.90;;;;;;5031256;28;19960;-77
2024/02/24 08:27:53;;;;;;;;;;;13.10;99.90;;;;;;5030634;28;19995;-77
2024/02/24 08:30:19;;;;;;;;;;;13.30;99.90;;;;;;5028977;28;19912;-78
2024/02/24 08:32:44;;;;;;;;;;;13.30;99.90;;;;;;5038234;28;19913;-78
2024/02/24 08:35:10;;;;;;;;;;;13.20;99.90;;;;;;5035180;28;19906;-78
2024/02/24 08:37:36;;;;;;;;;;;13.20;99.90;;;;;;5031342;28;19913;-77
2024/02/24 08:40:01;;;;;;;;;;;13.20;99.90;;;;;;5030930;28;19913;-78
2024/02/24 08:42:27;;;;;;;;;;;13.20;99.90;;;;;;5030960;28;19897;-78
2024/02/24 08:44:52;;;;;;;;;;;13.30;99.90;;;;;;5032121;28;19996;-78
2024/02/24 08:47:18;;;;;;;;;;;13.30;99.90;;;;;;5031395;28;19928;-78
2024/02/24 08:49:44;;;;;;;;;;;13.40;99.90;;;;;;5032588;28;19917;-78
2024/02/24 08:52:09;;;;;;;;;;;13.40;99.90;;;;;;5033802;28;19890;-77
2024/02/24 08:54:35;;;;;;;;;;;13.40;99.90;;;;;;5031181;28;19906;-78
2024/02/24 08:57:01;;;;;;;;;;;13.40;99.90;;;;;;5033892;28;19937;-78
2024/02/24 08:59:26;;;;;;;;;;;13.60;99.90;;;;;;5028126;28;19988;-77
2024/02/24 09:01:54;;;;;;;;;;;13.60;99.90;;;;;;5029469;28;19972;-78
2024/02/24 09:04:20;;;;;;;;;;;13.70;99.90;;;;;;5033201;28;19890;-78
2024/02/24 09:06:45;;;;;;;;;;;13.70;99.90;;;;;;5042882;28;19912;-78
2024/02/24 09:09:15;;;;;;;;;;;13.90;99.90;;;;;;5035809;28;19927;-78
2024/02/24 09:11:46;;;;;;;;;;;13.90;99.90;;;;;;5050168;28;19916;-77
2024/02/24 09:14:12;;;;;;;;;;;13.90;99.90;;;;;;5036951;28;19940;-79
2024/02/24 09:16:37;;;;;;;;;;;13.90;99.90;;;;;;5053165;28;19889;-78
2024/02/24 09:19:03;;;;;;;;;;;13.90;99.90;;;;;;5036334;28;19972;-78
2024/02/24 09:21:28;;;;;;;;;;;14.00;99.90;;;;;;5049505;28;19897;-78
2024/02/24 09:23:54;;;;;;;;;;;14.10;99.90;;;;;;5036065;28;19944;-77
2024/02/24 09:26:20;;;;;;;;;;;14.20;99.90;;;;;;5032814;28;19964;-77
2024/02/24 09:28:46;;;;;;;;;;;14.30;99.90;;;;;;5033855;28;19909;-77
2024/02/24 09:31:12;;;;;;;;;;;14.40;99.90;;;;;;5031463;28;19911;-76
2024/02/24 09:33:37;;;;;;;;;;;14.40;99.90;;;;;;5050933;28;19976;-78
2024/02/24 09:36:03;;;;;;;;;;;14.40;99.90;;;;;;5033502;28;19889;-78
2024/02/24 09:38:29;;;;;;;;;;;14.30;99.90;;;;;;5051930;28;19905;-77
2024/02/24 09:40:54;;;;;;;;;;;14.00;99.90;;;;;;5035130;28;19924;-78
2024/02/24 09:43:20;;;;;;;;;;;14.20;99.90;;;;;;5051808;28;19896;-77
2024/02/24 09:45:47;;;;;;;;;;;14.00;99.90;;;;;;5052572;28;19905;-77
2024/02/24 09:48:13;;;;;;;;;;;13.80;99.90;;;;;;5034439;28;19905;-77
2024/02/24 09:50:39;;;;;;;;;;;14.00;99.90;;;;;;5045239;28;20016;-78
2024/02/24 09:53:04;;;;;;;;;;;14.00;99.90;;;;;;5035387;28;19909;-78
2024/02/24 09:55:30;;;;;;;;;;;13.90;99.90;;;;;;5036146;28;19911;-77
2024/02/24 09:57:56;;;;;;;;;;;14.00;99.90;;;;;;5036699;28;19889;-77
2024/02/24 10:00:22;;;;;;;;;;;14.10;99.90;;;;;;5047989;28;19913;-78
2024/02/24 10:02:48;;;;;;;;;;;14.20;99.90;;;;;;5052473;28;19944;-77
2024/02/24 10:05:16;;;;;;;;;;;14.00;99.90;;;;;;5035901;28;19912;-78
2024/02/24 10:07:46;;;;;;;;;;;14.40;99.90;;;;;;5052683;28;19908;-78
2024/02/24 10:10:16;;;;;;;;;;;14.40;99.90;;;;;;5032744;28;19919;-78
2024/02/24 10:12:57;;;;;;;;;;;14.40;99.90;;;;;;5050399;28;19905;-78
2024/02/24 10:15:23;;;;;;;;;;;14.30;99.90;;;;;;5031529;28;19905;-77
2024/02/24 10:17:49;;;;;;;;;;;14.10;99.90;;;;;;5049554;28;19928;-79
2024/02/24 10:20:15;;;;;;;;;;;13.80;99.90;;;;;;5053261;28;19917;-79
2024/02/24 10:22:41;;;;;;;;;;;14.10;99.90;;;;;;5054070;28;20288;-79
2024/02/24 10:25:07;;;;;;;;;;;14.10;99.90;;;;;;5035596;28;19928;-78
2024/02/24 10:27:32;;;;;;;;;;;14.20;99.90;;;;;;5032810;28;19905;-78
2024/02/24 10:30:00;;;;;;;;;;;14.10;99.90;;;;;;5035019;28;19916;-78
2024/02/24 10:32:26;;;;;;;;;;;14.20;99.90;;;;;;5032968;28;19907;-77
2024/02/24 10:34:52;;;;;;;;;;;14.10;99.90;;;;;;5038999;28;19895;-77
2024/02/24 10:37:18;;;;;;;;;;;14.00;99.90;;;;;;5037026;28;19905;-77
2024/02/24 10:39:44;;;;;;;;;;;14.00;99.90;;;;;;5036970;28;19905;-78
2024/02/24 10:42:10;;;;;;;;;;;14.10;99.90;;;;;;5038608;28;19931;-78
2024/02/24 10:44:37;;;;;;;;;;;14.10;99.90;;;;;;5038144;28;19916;-78
2024/02/24 10:47:03;;;;;;;;;;;14.00;99.90;;;;;;5038993;28;19927;-78
2024/02/24 10:49:29;;;;;;;;;;;14.00;99.90;;;;;;5040177;28;19893;-77
2024/02/24 10:51:55;;;;;;;;;;;14.00;99.90;;;;;;5038297;28;19909;-78
2024/02/24 10:54:22;;;;;;;;;;;13.80;99.90;;;;;;5054291;28;19927;-79
2024/02/24 10:56:52;;;;;;;;;;;13.90;99.90;;;;;;5056626;28;19905;-77
2024/02/24 10:59:25;;;;;;;;;;;13.90;99.90;;;;;;5060265;28;19909;-78
2024/02/24 11:01:51;;;;;;;;;;;13.80;99.90;;;;;;5039302;28;19917;-78
2024/02/24 11:04:17;;;;;;;;;;;13.80;99.90;;;;;;5041316;28;19932;-78
2024/02/24 11:06:48;;;;;;;;;;;13.90;99.90;;;;;;5056209;28;20401;-77
2024/02/24 11:09:26;;;;;;;;;;;13.90;99.90;;;;;;5033062;28;19911;-78
2024/02/24 11:11:51;;;;;;;;;;;14.00;99.00;;;;;;5037700;28;19896;-77
2024/02/24 11:14:17;;;;;;;;;;;14.00;99.20;;;;;;5039587;28;19928;-78
2024/02/24 11:16:44;;;;;;;;;;;14.00;99.50;;;;;;5057599;28;19927;-77
2024/02/24 11:19:12;;;;;;;;;;;14.00;99.20;;;;;;5038983;28;19896;-78
2024/02/24 11:22:06;;;;;;;;;;;13.90;99.50;;;;;;5036585;28;19913;-78
2024/02/24 11:24:33;;;;;;;;;;;13.90;99.30;;;;;;5039904;28;19889;-78
2024/02/24 11:26:59;;;;;;;;;;;14.00;99.10;;;;;;5041527;28;19903;-78
2024/02/24 11:29:29;;;;;;;;;;;14.10;99.00;;;;;;5041887;28;19917;-77
2024/02/24 11:32:16;;;;;;;;;;;14.10;98.20;;;;;;5041423;28;19901;-78
2024/02/24 11:34:43;;;;;;;;;;;14.10;98.70;;;;;;5038851;28;19905;-78
2024/02/24 11:37:10;;;;;;;;;;;14.20;98.20;;;;;;5035281;28;19958;-78
2024/02/24 11:39:39;;;;;;;;;;;14.30;97.70;;;;;;5039060;28;19909;-77
2024/02/24 11:42:05;;;;;;;;;;;14.40;97.80;;;;;;5056320;28;19900;-79
2024/02/24 11:44:31;;;;;;;;;;;14.40;96.70;;;;;;5033552;28;19905;-78
2024/02/24 11:46:57;;;;;;;;;;;14.50;97.00;;;;;;5038584;28;19972;-77
2024/02/24 11:49:24;;;;;;;;;;;14.60;97.30;;;;;;5039003;28;20369;-79
2024/02/24 11:51:50;;;;;;;;;;;14.60;97.20;;;;;;5033923;28;19909;-78
2024/02/24 11:54:16;;;;;;;;;;;14.60;95.70;;;;;;5039135;28;19968;-78
2024/02/24 11:56:43;;;;;;;;;;;14.70;95.50;;;;;;5038483;28;19916;-78
2024/02/24 11:59:11;;;;;;;;;;;14.60;95.90;;;;;;5032471;28;19912;-77
2024/02/24 12:01:43;;;;;;;;;;;14.50;94.80;;;;;;5041433;28;20392;-77
2024/02/24 12:04:08;;;;;;;;;;;14.50;94.50;;;;;;5049056;28;20362;-77
2024/02/24 12:06:34;;;;;;;;;;;14.50;95.20;;;;;;5029039;28;19923;-77
2024/02/24 12:09:00;;;;;;;;;;;14.40;94.40;;;;;;5015747;28;19937;-78
2024/02/24 12:11:26;;;;;;;;;;;14.40;94.20;;;;;;5023434;28;19972;-78
2024/02/24 12:13:52;;;;;;;;;;;14.30;92.60;;;;;;5037785;28;19890;-77
2024/02/24 12:16:18;;;;;;;;;;;14.20;92.20;;;;;;5027124;28;19928;-78
2024/02/24 12:18:44;;;;;;;;;;;14.20;92.50;;;;;;5030586;28;19908;-77
2024/02/24 12:21:10;;;;;;;;;;;14.20;92.50;;;;;;5051481;28;19964;-77
2024/02/24 12:23:36;;;;;;;;;;;14.20;92.10;;;;;;5054253;28;19928;-78
2024/02/24 12:26:16;;;;;;;;;;;14.20;92.40;;;;;;5038255;28;19889;-77
2024/02/24 12:28:42;;;;;;;;;;;14.20;92.10;;;;;;5023806;28;19905;-77
2024/02/24 12:31:11;;;;;;;;;;;14.20;91.80;;;;;;5023809;28;19962;-77
2024/02/24 12:33:37;;;;;;;;;;;14.20;92.90;;;;;;5023089;28;19905;-77
2024/02/24 12:36:06;;;;;;;;;;;14.10;93.00;;;;;;5018864;28;19905;-77
2024/02/24 12:38:32;;;;;;;;;;;14.10;92.30;;;;;;5022759;28;19912;-77
2024/02/24 12:40:58;;;;;;;;;;;14.10;92.10;;;;;;5040773;28;20031;-77
2024/02/24 12:43:23;;;;;;;;;;;14.10;93.00;;;;;;5022637;28;19962;-77
2024/02/24 12:45:51;;;;;;;;;;;14.00;93.30;;;;;;5021321;28;19909;-77
2024/02/24 12:48:20;;;;;;;;;;;13.90;93.20;;;;;;5023281;28;19963;-77
2024/02/24 12:50:45;;;;;;;;;;;13.80;93.40;;;;;;5022960;28;19905;-77
2024/02/24 12:53:14;;;;;;;;;;;13.80;93.50;;;;;;5040343;28;20427;-77
2024/02/24 12:55:40;;;;;;;;;;;13.80;93.70;;;;;;5023858;28;19920;-77
2024/02/24 12:58:06;;;;;;;;;;;13.80;93.60;;;;;;5024889;28;19920;-77
2024/02/24 13:00:32;;;;;;;;;;;13.80;93.50;;;;;;5024761;28;19913;-77
2024/02/24 13:03:01;;;;;;;;;;;13.70;93.60;;;;;;5034050;28;19968;-79
2024/02/24 13:05:26;;;;;;;;;;;13.70;93.90;;;;;;5036840;28;19909;-77
2024/02/24 13:07:53;;;;;;;;;;;13.80;93.50;;;;;;5054711;28;19976;-79
2024/02/24 13:10:19;;;;;;;;;;;13.80;93.20;;;;;;5037052;28;19889;-79
2024/02/24 13:12:44;;;;;;;;;;;13.80;93.20;;;;;;5034960;28;20417;-78
2024/02/24 13:15:10;;;;;;;;;;;13.80;93.30;;;;;;5051750;28;19991;-78
2024/02/24 13:17:54;;;;;;;;;;;13.80;93.20;;;;;;5053938;28;19905;-78
2024/02/24 13:20:19;;;;;;;;;;;13.70;93.60;;;;;;5051700;28;19931;-78
2024/02/24 13:22:45;;;;;;;;;;;13.70;93.50;;;;;;5053889;28;19948;-78
2024/02/24 13:25:10;;;;;;;;;;;13.70;93.30;;;;;;5036867;28;19905;-79
2024/02/24 13:27:36;;;;;;;;;;;13.70;93.90;;;;;;5034116;28;19909;-78
2024/02/24 13:30:02;;;;;;;;;;;13.60;93.20;;;;;;5032450;28;19909;-78
2024/02/24 13:32:28;;;;;;;;;;;13.70;93.70;;;;;;5035266;28;19999;-78
2024/02/24 13:35:00;;;;;;;;;;;13.60;93.90;;;;;;5035820;28;19905;-78
2024/02/24 13:37:26;;;;;;;;;;;13.50;94.40;;;;;;5055069;28;19911;-78
2024/02/24 13:39:53;;;;;;;;;;;13.50;94.40;;;;;;5032293;28;19940;-78
2024/02/24 13:42:34;;;;;;;;;;;13.50;94.30;;;;;;5037026;28;19909;-78
2024/02/24 13:45:00;;;;;;;;;;;13.50;94.30;;;;;;5033992;28;19980;-77
2024/02/24 13:47:27;;;;;;;;;;;13.30;94.90;;;;;;5035501;28;19909;-78
2024/02/24 13:49:53;;;;;;;;;;;13.30;95.20;;;;;;5053373;28;19927;-78
2024/02/24 13:52:18;;;;;;;;;;;13.20;95.20;;;;;;5036849;28;19890;-78
2024/02/24 13:57:33;;;;;;;;;;;13.40;95.10;;;;;;5057213;28;19973;-77
2024/02/24 14:00:11;;;;;;;;;;;13.20;95.50;;;;;;5036262;28;19942;-78
2024/02/24 14:02:59;;;;;;;;;;;13.20;95.60;;;;;;5053760;28;19912;-78
2024/02/24 14:05:28;;;;;;;;;;;13.20;95.50;;;;;;5058007;28;19911;-78
2024/02/24 14:10:22;;;;;;;;;;;13.20;95.40;;;;;;5054951;28;19905;-78
2024/02/24 14:12:48;;;;;;;;;;;13.20;95.60;;;;;;5059777;28;19912;-79
2024/02/24 14:15:13;;;;;;;;;;;13.20;95.90;;;;;;5039331;28;19912;-77
2024/02/24 14:17:39;;;;;;;;;;;13.10;96.20;;;;;;5039760;28;19912;-77
2024/02/24 14:20:08;;;;;;;;;;;13.10;96.60;;;;;;5057323;28;19920;-78
2024/02/24 14:22:34;;;;;;;;;;;13.20;96.80;;;;;;5039063;28;19905;-78